sensor_id;sensor_type;location;lat;lon;timestamp;P1;durP1;ratioP1;P2;durP2;ratioP2
74867;SDS011;63419;42.262;12.210;2023-03-01T00:02:24;3.80;;;1.00;;
74867;SDS011;63419;42.262;12.210;2023-03-01T00:04:51;4.63;;;1.10;;
74867;SDS011;63419;42.262;12.210;2023-03-01T00:07:37;4.45;;;0.90;;
74867;SDS011;63419;42.262;12.210;2023-03-01T00:10:04;4.57;;;0.98;;
74867;SDS011;63419;42.262;12.210;2023-03-01T00:12:32;7.78;;;1.88;;
74867;SDS011;63419;42.262;12.210;2023-03-01T00:14:59;5.75;;;1.15;;
74867;SDS011;63419;42.262;12.210;2023-03-01T00:17:27;5.45;;;1.02;;
74867;SDS011;63419;42.262;12.210;2023-03-01T00:19:55;4.43;;;1.00;;
74867;SDS011;63419;42.262;12.210;2023-03-01T00:22:22;4.28;;;0.95;;
74867;SDS011;63419;42.262;12.210;2023-03-01T00:24:51;3.55;;;0.77;;
74867;SDS011;63419;42.262;12.210;2023-03-01T00:27:18;3.40;;;0.73;;
74867;SDS011;63419;42.262;12.210;2023-03-01T00:29:45;2.15;;;0.40;;
74867;SDS011;63419;42.262;12.210;2023-03-01T00:32:12;2.95;;;0.80;;
74867;SDS011;63419;42.262;12.210;2023-03-01T00:34:39;3.65;;;0.70;;
74867;SDS011;63419;42.262;12.210;2023-03-01T00:37:07;3.88;;;0.80;;
74867;SDS011;63419;42.262;12.210;2023-03-01T00:39:34;3.95;;;0.90;;
74867;SDS011;63419;42.262;12.210;2023-03-01T00:42:09;4.10;;;0.93;;
74867;SDS011;63419;42.262;12.210;2023-03-01T00:44:36;4.75;;;1.20;;
74867;SDS011;63419;42.262;12.210;2023-03-01T00:47:04;4.22;;;1.08;;
74867;SDS011;63419;42.262;12.210;2023-03-01T00:49:31;4.10;;;0.88;;
74867;SDS011;63419;42.262;12.210;2023-03-01T00:51:58;3.03;;;0.90;;
74867;SDS011;63419;42.262;12.210;2023-03-01T00:54:25;5.65;;;1.70;;
74867;SDS011;63419;42.262;12.210;2023-03-01T00:56:53;3.90;;;1.00;;
74867;SDS011;63419;42.262;12.210;2023-03-01T00:59:21;4.13;;;1.10;;
74867;SDS011;63419;42.262;12.210;2023-03-01T01:01:51;3.97;;;1.02;;
74867;SDS011;63419;42.262;12.210;2023-03-01T01:04:18;3.63;;;0.88;;
74867;SDS011;63419;42.262;12.210;2023-03-01T01:06:47;3.72;;;1.05;;
74867;SDS011;63419;42.262;12.210;2023-03-01T01:09:16;4.13;;;0.93;;
74867;SDS011;63419;42.262;12.210;2023-03-01T01:11:47;4.63;;;1.20;;
74867;SDS011;63419;42.262;12.210;2023-03-01T01:14:17;4.95;;;1.20;;
74867;SDS011;63419;42.262;12.210;2023-03-01T01:16:45;4.30;;;0.90;;
74867;SDS011;63419;42.262;12.210;2023-03-01T01:19:13;4.88;;;1.00;;
74867;SDS011;63419;42.262;12.210;2023-03-01T01:21:44;4.40;;;1.20;;
74867;SDS011;63419;42.262;12.210;2023-03-01T01:24:15;3.38;;;0.75;;
74867;SDS011;63419;42.262;12.210;2023-03-01T01:26:43;4.38;;;1.13;;
74867;SDS011;63419;42.262;12.210;2023-03-01T01:29:11;6.38;;;1.27;;
74867;SDS011;63419;42.262;12.210;2023-03-01T01:31:41;4.47;;;1.13;;
74867;SDS011;63419;42.262;12.210;2023-03-01T01:34:12;5.32;;;1.38;;
74867;SDS011;63419;42.262;12.210;2023-03-01T01:36:53;4.60;;;1.38;;
74867;SDS011;63419;42.262;12.210;2023-03-01T01:39:21;6.32;;;1.40;;
74867;SDS011;63419;42.262;12.210;2023-03-01T01:41:49;3.90;;;0.88;;
74867;SDS011;63419;42.262;12.210;2023-03-01T01:44:21;4.05;;;0.73;;
74867;SDS011;63419;42.262;12.210;2023-03-01T01:47:27;3.75;;;0.80;;
74867;SDS011;63419;42.262;12.210;2023-03-01T01:49:51;3.80;;;0.90;;
74867;SDS011;63419;42.262;12.210;2023-03-01T01:55:07;4.05;;;1.00;;
74867;SDS011;63419;42.262;12.210;2023-03-01T01:57:48;4.20;;;1.10;;
74867;SDS011;63419;42.262;12.210;2023-03-01T02:00:26;3.40;;;0.73;;
74867;SDS011;63419;42.262;12.210;2023-03-01T02:02:57;2.88;;;0.82;;
74867;SDS011;63419;42.262;12.210;2023-03-01T02:09:11;3.20;;;0.90;;
74867;SDS011;63419;42.262;12.210;2023-03-01T02:11:42;3.45;;;0.90;;
74867;SDS011;63419;42.262;12.210;2023-03-01T02:14:10;2.67;;;0.70;;
74867;SDS011;63419;42.262;12.210;2023-03-01T02:16:38;3.90;;;0.80;;
74867;SDS011;63419;42.262;12.210;2023-03-01T02:19:05;3.75;;;0.52;;
74867;SDS011;63419;42.262;12.210;2023-03-01T02:21:51;4.25;;;0.85;;
74867;SDS011;63419;42.262;12.210;2023-03-01T02:24:32;3.42;;;0.73;;
74867;SDS011;63419;42.262;12.210;2023-03-01T02:28:00;3.88;;;1.00;;
74867;SDS011;63419;42.262;12.210;2023-03-01T02:30:46;4.03;;;1.10;;
74867;SDS011;63419;42.262;12.210;2023-03-01T02:33:35;4.30;;;0.82;;
74867;SDS011;63419;42.262;12.210;2023-03-01T02:36:08;3.08;;;0.65;;
74867;SDS011;63419;42.262;12.210;2023-03-01T02:38:41;4.00;;;0.70;;
74867;SDS011;63419;42.262;12.210;2023-03-01T02:41:11;4.97;;;0.93;;
74867;SDS011;63419;42.262;12.210;2023-03-01T02:43:44;4.00;;;0.93;;
74867;SDS011;63419;42.262;12.210;2023-03-01T02:46:18;3.20;;;0.57;;
74867;SDS011;63419;42.262;12.210;2023-03-01T02:48:50;3.20;;;0.70;;
74867;SDS011;63419;42.262;12.210;2023-03-01T02:57:00;3.90;;;0.80;;
74867;SDS011;63419;42.262;12.210;2023-03-01T02:59:29;3.85;;;1.20;;
74867;SDS011;63419;42.262;12.210;2023-03-01T03:02:06;4.15;;;1.05;;
74867;SDS011;63419;42.262;12.210;2023-03-01T03:04:46;4.00;;;0.80;;
74867;SDS011;63419;42.262;12.210;2023-03-01T03:07:14;4.07;;;0.80;;
74867;SDS011;63419;42.262;12.210;2023-03-01T03:09:41;3.85;;;0.80;;
74867;SDS011;63419;42.262;12.210;2023-03-01T03:12:14;2.78;;;0.60;;
74867;SDS011;63419;42.262;12.210;2023-03-01T03:14:41;3.20;;;0.60;;
74867;SDS011;63419;42.262;12.210;2023-03-01T03:17:08;3.55;;;0.63;;
74867;SDS011;63419;42.262;12.210;2023-03-01T03:19:35;4.40;;;0.75;;
74867;SDS011;63419;42.262;12.210;2023-03-01T03:22:02;5.07;;;0.98;;
74867;SDS011;63419;42.262;12.210;2023-03-01T03:24:29;3.50;;;0.95;;
74867;SDS011;63419;42.262;12.210;2023-03-01T03:27:05;3.92;;;1.10;;
74867;SDS011;63419;42.262;12.210;2023-03-01T03:29:33;4.45;;;0.85;;
74867;SDS011;63419;42.262;12.210;2023-03-01T03:32:01;4.78;;;1.00;;
74867;SDS011;63419;42.262;12.210;2023-03-01T03:34:29;4.38;;;1.00;;
74867;SDS011;63419;42.262;12.210;2023-03-01T03:36:57;4.43;;;1.25;;
74867;SDS011;63419;42.262;12.210;2023-03-01T03:39:26;4.75;;;1.02;;
74867;SDS011;63419;42.262;12.210;2023-03-01T03:41:55;3.92;;;1.02;;
74867;SDS011;63419;42.262;12.210;2023-03-01T03:44:24;6.35;;;1.35;;
74867;SDS011;63419;42.262;12.210;2023-03-01T03:46:51;6.40;;;1.45;;
74867;SDS011;63419;42.262;12.210;2023-03-01T03:49:18;5.35;;;1.60;;
74867;SDS011;63419;42.262;12.210;2023-03-01T03:51:46;4.20;;;1.13;;
74867;SDS011;63419;42.262;12.210;2023-03-01T03:54:15;3.50;;;0.85;;
74867;SDS011;63419;42.262;12.210;2023-03-01T03:56:44;4.65;;;1.33;;
74867;SDS011;63419;42.262;12.210;2023-03-01T03:59:12;4.78;;;1.30;;
74867;SDS011;63419;42.262;12.210;2023-03-01T04:01:39;3.95;;;0.98;;
74867;SDS011;63419;42.262;12.210;2023-03-01T04:04:07;4.47;;;1.10;;
74867;SDS011;63419;42.262;12.210;2023-03-01T04:06:35;4.70;;;1.17;;
74867;SDS011;63419;42.262;12.210;2023-03-01T04:09:03;3.78;;;0.98;;
74867;SDS011;63419;42.262;12.210;2023-03-01T04:11:30;4.70;;;0.98;;
74867;SDS011;63419;42.262;12.210;2023-03-01T04:13:58;3.15;;;0.98;;
74867;SDS011;63419;42.262;12.210;2023-03-01T04:16:27;3.70;;;0.85;;
74867;SDS011;63419;42.262;12.210;2023-03-01T04:18:55;5.05;;;1.10;;
74867;SDS011;63419;42.262;12.210;2023-03-01T04:21:22;4.13;;;0.93;;
74867;SDS011;63419;42.262;12.210;2023-03-01T04:23:52;5.03;;;1.23;;
74867;SDS011;63419;42.262;12.210;2023-03-01T04:26:20;3.72;;;0.93;;
74867;SDS011;63419;42.262;12.210;2023-03-01T04:28:47;3.28;;;0.90;;
74867;SDS011;63419;42.262;12.210;2023-03-01T04:31:17;4.22;;;0.98;;
74867;SDS011;63419;42.262;12.210;2023-03-01T04:33:51;3.53;;;0.90;;
74867;SDS011;63419;42.262;12.210;2023-03-01T04:36:23;3.90;;;0.80;;
74867;SDS011;63419;42.262;12.210;2023-03-01T04:44:29;4.97;;;0.82;;
74867;SDS011;63419;42.262;12.210;2023-03-01T04:46:57;7.07;;;0.80;;
74867;SDS011;63419;42.262;12.210;2023-03-01T04:49:24;3.13;;;0.52;;
74867;SDS011;63419;42.262;12.210;2023-03-01T04:51:51;3.13;;;0.70;;
74867;SDS011;63419;42.262;12.210;2023-03-01T04:54:18;3.20;;;0.80;;
74867;SDS011;63419;42.262;12.210;2023-03-01T04:56:45;3.55;;;0.70;;
74867;SDS011;63419;42.262;12.210;2023-03-01T04:59:12;3.95;;;0.88;;
74867;SDS011;63419;42.262;12.210;2023-03-01T05:01:40;2.90;;;0.70;;
74867;SDS011;63419;42.262;12.210;2023-03-01T05:04:09;3.38;;;0.82;;
74867;SDS011;63419;42.262;12.210;2023-03-01T05:06:39;3.95;;;0.65;;
74867;SDS011;63419;42.262;12.210;2023-03-01T05:09:07;2.67;;;0.70;;
74867;SDS011;63419;42.262;12.210;2023-03-01T05:11:34;2.08;;;0.50;;
74867;SDS011;63419;42.262;12.210;2023-03-01T05:14:02;3.28;;;0.57;;
74867;SDS011;63419;42.262;12.210;2023-03-01T05:16:31;3.45;;;0.63;;
74867;SDS011;63419;42.262;12.210;2023-03-01T05:19:02;2.80;;;0.70;;
74867;SDS011;63419;42.262;12.210;2023-03-01T05:21:42;6.20;;;0.75;;
74867;SDS011;63419;42.262;12.210;2023-03-01T05:24:29;2.10;;;0.52;;
74867;SDS011;63419;42.262;12.210;2023-03-01T05:26:59;3.00;;;0.77;;
74867;SDS011;63419;42.262;12.210;2023-03-01T05:29:29;2.55;;;0.40;;
74867;SDS011;63419;42.262;12.210;2023-03-01T05:32:01;2.28;;;0.40;;
74867;SDS011;63419;42.262;12.210;2023-03-01T05:34:30;1.70;;;0.50;;
74867;SDS011;63419;42.262;12.210;2023-03-01T05:37:02;2.20;;;0.52;;
74867;SDS011;63419;42.262;12.210;2023-03-01T05:39:29;3.13;;;0.52;;
74867;SDS011;63419;42.262;12.210;2023-03-01T05:41:58;1.98;;;0.40;;
74867;SDS011;63419;42.262;12.210;2023-03-01T05:44:28;2.53;;;0.50;;
74867;SDS011;63419;42.262;12.210;2023-03-01T05:46:55;2.78;;;0.50;;
74867;SDS011;63419;42.262;12.210;2023-03-01T05:49:24;2.72;;;0.45;;
74867;SDS011;63419;42.262;12.210;2023-03-01T05:51:52;3.35;;;0.63;;
74867;SDS011;63419;42.262;12.210;2023-03-01T05:56:48;2.17;;;0.43;;
74867;SDS011;63419;42.262;12.210;2023-03-01T05:59:15;1.50;;;0.43;;
74867;SDS011;63419;42.262;12.210;2023-03-01T06:01:42;2.78;;;0.60;;
74867;SDS011;63419;42.262;12.210;2023-03-01T06:04:10;2.65;;;0.45;;
74867;SDS011;63419;42.262;12.210;2023-03-01T06:06:37;2.97;;;0.75;;
74867;SDS011;63419;42.262;12.210;2023-03-01T06:09:07;3.53;;;0.75;;
74867;SDS011;63419;42.262;12.210;2023-03-01T06:11:36;5.78;;;0.90;;
74867;SDS011;63419;42.262;12.210;2023-03-01T06:16:32;4.68;;;1.02;;
74867;SDS011;63419;42.262;12.210;2023-03-01T06:19:00;2.60;;;0.55;;
74867;SDS011;63419;42.262;12.210;2023-03-01T06:21:27;3.03;;;0.70;;
74867;SDS011;63419;42.262;12.210;2023-03-01T06:23:54;2.72;;;0.70;;
74867;SDS011;63419;42.262;12.210;2023-03-01T06:26:22;3.05;;;0.70;;
74867;SDS011;63419;42.262;12.210;2023-03-01T06:28:51;1.60;;;0.35;;
74867;SDS011;63419;42.262;12.210;2023-03-01T06:31:19;3.92;;;0.60;;
74867;SDS011;63419;42.262;12.210;2023-03-01T06:33:47;2.15;;;0.43;;
74867;SDS011;63419;42.262;12.210;2023-03-01T06:36:14;2.72;;;0.60;;
74867;SDS011;63419;42.262;12.210;2023-03-01T06:38:45;4.82;;;1.40;;
74867;SDS011;63419;42.262;12.210;2023-03-01T06:41:12;2.53;;;0.70;;
74867;SDS011;63419;42.262;12.210;2023-03-01T06:43:39;2.55;;;0.50;;
74867;SDS011;63419;42.262;12.210;2023-03-01T06:46:06;2.97;;;0.60;;
74867;SDS011;63419;42.262;12.210;2023-03-01T06:48:34;3.13;;;0.52;;
74867;SDS011;63419;42.262;12.210;2023-03-01T06:51:02;5.88;;;0.95;;
74867;SDS011;63419;42.262;12.210;2023-03-01T06:53:29;1.65;;;0.40;;
74867;SDS011;63419;42.262;12.210;2023-03-01T06:58:26;2.53;;;0.50;;
74867;SDS011;63419;42.262;12.210;2023-03-01T07:00:54;3.88;;;0.68;;
74867;SDS011;63419;42.262;12.210;2023-03-01T07:03:21;2.03;;;0.32;;
74867;SDS011;63419;42.262;12.210;2023-03-01T07:05:49;3.72;;;0.60;;
74867;SDS011;63419;42.262;12.210;2023-03-01T07:08:19;4.25;;;0.60;;
74867;SDS011;63419;42.262;12.210;2023-03-01T07:10:47;4.00;;;0.43;;
74867;SDS011;63419;42.262;12.210;2023-03-01T07:13:17;2.13;;;0.47;;
74867;SDS011;63419;42.262;12.210;2023-03-01T07:15:44;5.38;;;1.13;;
74867;SDS011;63419;42.262;12.210;2023-03-01T07:18:12;2.17;;;0.50;;
74867;SDS011;63419;42.262;12.210;2023-03-01T07:20:40;5.50;;;0.70;;
74867;SDS011;63419;42.262;12.210;2023-03-01T07:23:11;2.70;;;0.55;;
74867;SDS011;63419;42.262;12.210;2023-03-01T07:25:41;2.65;;;0.40;;
74867;SDS011;63419;42.262;12.210;2023-03-01T07:28:18;1.85;;;0.47;;
74867;SDS011;63419;42.262;12.210;2023-03-01T07:30:51;2.58;;;0.77;;
74867;SDS011;63419;42.262;12.210;2023-03-01T07:33:22;3.65;;;0.95;;
74867;SDS011;63419;42.262;12.210;2023-03-01T07:35:56;2.88;;;0.73;;
74867;SDS011;63419;42.262;12.210;2023-03-01T07:38:29;2.40;;;0.50;;
74867;SDS011;63419;42.262;12.210;2023-03-01T07:41:01;1.67;;;0.30;;
74867;SDS011;63419;42.262;12.210;2023-03-01T07:43:36;2.17;;;0.47;;
74867;SDS011;63419;42.262;12.210;2023-03-01T07:46:08;2.55;;;0.55;;
74867;SDS011;63419;42.262;12.210;2023-03-01T07:48:45;2.67;;;0.60;;
74867;SDS011;63419;42.262;12.210;2023-03-01T07:51:13;2.45;;;0.60;;
74867;SDS011;63419;42.262;12.210;2023-03-01T07:53:40;1.95;;;0.40;;
74867;SDS011;63419;42.262;12.210;2023-03-01T07:56:08;4.78;;;1.88;;
74867;SDS011;63419;42.262;12.210;2023-03-01T07:58:40;4.03;;;1.00;;
74867;SDS011;63419;42.262;12.210;2023-03-01T08:01:10;2.33;;;0.60;;
74867;SDS011;63419;42.262;12.210;2023-03-01T08:03:41;2.63;;;0.47;;
74867;SDS011;63419;42.262;12.210;2023-03-01T08:06:11;3.42;;;0.60;;
74867;SDS011;63419;42.262;12.210;2023-03-01T08:08:42;2.30;;;0.45;;
74867;SDS011;63419;42.262;12.210;2023-03-01T08:11:14;3.05;;;0.40;;
74867;SDS011;63419;42.262;12.210;2023-03-01T08:13:47;1.83;;;0.30;;
74867;SDS011;63419;42.262;12.210;2023-03-01T08:16:18;1.85;;;0.35;;
74867;SDS011;63419;42.262;12.210;2023-03-01T08:18:51;2.00;;;0.60;;
74867;SDS011;63419;42.262;12.210;2023-03-01T08:21:20;1.60;;;0.30;;
74867;SDS011;63419;42.262;12.210;2023-03-01T08:23:50;2.22;;;0.40;;
74867;SDS011;63419;42.262;12.210;2023-03-01T08:26:20;1.67;;;0.30;;
74867;SDS011;63419;42.262;12.210;2023-03-01T08:28:50;1.60;;;0.40;;
74867;SDS011;63419;42.262;12.210;2023-03-01T08:31:20;1.65;;;0.35;;
74867;SDS011;63419;42.262;12.210;2023-03-01T08:33:57;1.88;;;0.32;;
74867;SDS011;63419;42.262;12.210;2023-03-01T08:36:30;5.03;;;0.40;;
74867;SDS011;63419;42.262;12.210;2023-03-01T08:39:09;3.05;;;0.57;;
74867;SDS011;63419;42.262;12.210;2023-03-01T08:41:41;3.38;;;0.60;;
74867;SDS011;63419;42.262;12.210;2023-03-01T08:44:12;2.33;;;0.50;;
74867;SDS011;63419;42.262;12.210;2023-03-01T08:46:47;4.40;;;1.60;;
74867;SDS011;63419;42.262;12.210;2023-03-01T08:49:20;4.55;;;1.50;;
74867;SDS011;63419;42.262;12.210;2023-03-01T08:51:50;3.35;;;0.90;;
74867;SDS011;63419;42.262;12.210;2023-03-01T08:54:18;2.70;;;0.73;;
74867;SDS011;63419;42.262;12.210;2023-03-01T08:56:49;4.53;;;1.63;;
74867;SDS011;63419;42.262;12.210;2023-03-01T08:59:19;2.85;;;0.52;;
74867;SDS011;63419;42.262;12.210;2023-03-01T09:01:47;3.47;;;0.63;;
74867;SDS011;63419;42.262;12.210;2023-03-01T09:04:16;4.47;;;0.80;;
74867;SDS011;63419;42.262;12.210;2023-03-01T09:06:46;4.32;;;1.73;;
74867;SDS011;63419;42.262;12.210;2023-03-01T09:09:15;4.10;;;0.65;;
74867;SDS011;63419;42.262;12.210;2023-03-01T09:11:45;3.25;;;0.93;;
74867;SDS011;63419;42.262;12.210;2023-03-01T09:14:13;1.73;;;0.40;;
74867;SDS011;63419;42.262;12.210;2023-03-01T09:16:42;1.88;;;0.47;;
74867;SDS011;63419;42.262;12.210;2023-03-01T09:19:12;1.58;;;0.32;;
74867;SDS011;63419;42.262;12.210;2023-03-01T09:21:44;2.67;;;0.43;;
74867;SDS011;63419;42.262;12.210;2023-03-01T09:26:49;3.88;;;0.80;;
74867;SDS011;63419;42.262;12.210;2023-03-01T09:29:21;1.98;;;0.40;;
74867;SDS011;63419;42.262;12.210;2023-03-01T09:31:51;2.83;;;0.80;;
74867;SDS011;63419;42.262;12.210;2023-03-01T09:34:22;2.83;;;0.50;;
74867;SDS011;63419;42.262;12.210;2023-03-01T09:36:54;3.15;;;0.77;;
74867;SDS011;63419;42.262;12.210;2023-03-01T09:39:29;4.82;;;0.82;;
74867;SDS011;63419;42.262;12.210;2023-03-01T09:42:02;3.42;;;0.82;;
74867;SDS011;63419;42.262;12.210;2023-03-01T09:44:42;1.63;;;0.40;;
74867;SDS011;63419;42.262;12.210;2023-03-01T09:47:23;1.83;;;0.40;;
74867;SDS011;63419;42.262;12.210;2023-03-01T09:50:12;2.10;;;0.40;;
74867;SDS011;63419;42.262;12.210;2023-03-01T09:52:46;2.10;;;0.35;;
74867;SDS011;63419;42.262;12.210;2023-03-01T09:56:05;4.28;;;0.70;;
74867;SDS011;63419;42.262;12.210;2023-03-01T10:10:52;4.13;;;0.80;;
74867;SDS011;63419;42.262;12.210;2023-03-01T10:16:21;3.20;;;0.40;;
74867;SDS011;63419;42.262;12.210;2023-03-01T10:19:27;1.83;;;0.43;;
74867;SDS011;63419;42.262;12.210;2023-03-01T10:22:20;2.65;;;0.50;;
74867;SDS011;63419;42.262;12.210;2023-03-01T10:24:56;3.30;;;0.65;;
74867;SDS011;63419;42.262;12.210;2023-03-01T10:30:35;1.58;;;0.32;;
74867;SDS011;63419;42.262;12.210;2023-03-01T10:33:19;3.38;;;0.75;;
74867;SDS011;63419;42.262;12.210;2023-03-01T10:35:59;2.08;;;0.50;;
74867;SDS011;63419;42.262;12.210;2023-03-01T10:38:26;4.03;;;0.80;;
74867;SDS011;63419;42.262;12.210;2023-03-01T10:41:13;2.60;;;0.30;;
74867;SDS011;63419;42.262;12.210;2023-03-01T10:43:47;1.88;;;0.30;;
74867;SDS011;63419;42.262;12.210;2023-03-01T10:46:32;3.83;;;1.13;;
74867;SDS011;63419;42.262;12.210;2023-03-01T10:49:14;5.30;;;0.73;;
74867;SDS011;63419;42.262;12.210;2023-03-01T10:51:53;3.28;;;0.80;;
74867;SDS011;63419;42.262;12.210;2023-03-01T10:54:28;3.92;;;1.05;;
74867;SDS011;63419;42.262;12.210;2023-03-01T10:56:59;5.07;;;1.15;;
74867;SDS011;63419;42.262;12.210;2023-03-01T10:59:34;3.17;;;0.57;;
74867;SDS011;63419;42.262;12.210;2023-03-01T11:05:01;7.07;;;0.93;;
74867;SDS011;63419;42.262;12.210;2023-03-01T11:07:56;4.90;;;1.45;;
74867;SDS011;63419;42.262;12.210;2023-03-01T11:10:26;4.68;;;1.67;;
74867;SDS011;63419;42.262;12.210;2023-03-01T11:13:33;5.07;;;1.60;;
74867;SDS011;63419;42.262;12.210;2023-03-01T11:16:00;5.28;;;1.70;;
74867;SDS011;63419;42.262;12.210;2023-03-01T11:18:34;4.10;;;1.23;;
74867;SDS011;63419;42.262;12.210;2023-03-01T11:21:13;4.00;;;0.93;;
74867;SDS011;63419;42.262;12.210;2023-03-01T11:23:43;3.58;;;0.50;;
74867;SDS011;63419;42.262;12.210;2023-03-01T11:26:13;3.13;;;0.70;;
74867;SDS011;63419;42.262;12.210;2023-03-01T11:28:45;3.40;;;1.00;;
74867;SDS011;63419;42.262;12.210;2023-03-01T11:31:23;3.72;;;0.93;;
74867;SDS011;63419;42.262;12.210;2023-03-01T11:33:54;3.47;;;0.90;;
74867;SDS011;63419;42.262;12.210;2023-03-01T11:36:41;4.75;;;1.40;;
74867;SDS011;63419;42.262;12.210;2023-03-01T11:46:00;4.78;;;1.35;;
74867;SDS011;63419;42.262;12.210;2023-03-01T11:51:53;2.47;;;0.55;;
74867;SDS011;63419;42.262;12.210;2023-03-01T11:55:29;2.00;;;0.40;;
74867;SDS011;63419;42.262;12.210;2023-03-01T11:58:23;3.63;;;0.70;;
74867;SDS011;63419;42.262;12.210;2023-03-01T12:07:05;2.10;;;0.55;;
74867;SDS011;63419;42.262;12.210;2023-03-01T12:28:11;4.13;;;1.10;;
74867;SDS011;63419;42.262;12.210;2023-03-01T12:43:27;2.60;;;0.60;;
74867;SDS011;63419;42.262;12.210;2023-03-01T12:49:26;4.57;;;1.00;;
74867;SDS011;63419;42.262;12.210;2023-03-01T12:55:18;5.50;;;1.23;;
74867;SDS011;63419;42.262;12.210;2023-03-01T13:00:26;5.20;;;1.60;;
74867;SDS011;63419;42.262;12.210;2023-03-01T13:03:44;6.50;;;2.33;;
74867;SDS011;63419;42.262;12.210;2023-03-01T13:17:48;5.20;;;2.00;;
74867;SDS011;63419;42.262;12.210;2023-03-01T13:20:58;7.18;;;2.10;;
74867;SDS011;63419;42.262;12.210;2023-03-01T13:23:35;5.70;;;1.85;;
74867;SDS011;63419;42.262;12.210;2023-03-01T13:26:15;7.22;;;3.30;;
74867;SDS011;63419;42.262;12.210;2023-03-01T13:28:53;7.65;;;2.95;;
74867;SDS011;63419;42.262;12.210;2023-03-01T13:34:00;3.03;;;0.63;;
74867;SDS011;63419;42.262;12.210;2023-03-01T13:39:30;4.10;;;1.10;;
74867;SDS011;63419;42.262;12.210;2023-03-01T13:42:27;4.18;;;1.38;;
74867;SDS011;63419;42.262;12.210;2023-03-01T13:45:13;4.05;;;1.23;;
74867;SDS011;63419;42.262;12.210;2023-03-01T13:47:44;4.15;;;1.55;;
74867;SDS011;63419;42.262;12.210;2023-03-01T13:50:18;4.95;;;1.98;;
74867;SDS011;63419;42.262;12.210;2023-03-01T13:53:02;5.85;;;1.67;;
74867;SDS011;63419;42.262;12.210;2023-03-01T13:58:21;6.07;;;1.52;;
74867;SDS011;63419;42.262;12.210;2023-03-01T14:01:03;4.53;;;1.50;;
74867;SDS011;63419;42.262;12.210;2023-03-01T14:03:40;4.20;;;1.58;;
74867;SDS011;63419;42.262;12.210;2023-03-01T14:06:14;5.93;;;2.25;;
74867;SDS011;63419;42.262;12.210;2023-03-01T14:08:48;4.70;;;1.60;;
74867;SDS011;63419;42.262;12.210;2023-03-01T14:12:06;5.57;;;2.13;;
74867;SDS011;63419;42.262;12.210;2023-03-01T14:20:44;3.13;;;0.75;;
74867;SDS011;63419;42.262;12.210;2023-03-01T14:23:22;6.25;;;2.20;;
74867;SDS011;63419;42.262;12.210;2023-03-01T14:25:54;7.30;;;1.70;;
74867;SDS011;63419;42.262;12.210;2023-03-01T14:28:28;4.93;;;1.00;;
74867;SDS011;63419;42.262;12.210;2023-03-01T14:31:04;5.75;;;1.75;;
74867;SDS011;63419;42.262;12.210;2023-03-01T14:34:19;5.65;;;1.88;;
74867;SDS011;63419;42.262;12.210;2023-03-01T14:36:51;6.03;;;2.13;;
74867;SDS011;63419;42.262;12.210;2023-03-01T14:39:19;5.32;;;2.38;;
74867;SDS011;63419;42.262;12.210;2023-03-01T14:41:52;3.47;;;1.00;;
74867;SDS011;63419;42.262;12.210;2023-03-01T14:44:21;5.28;;;1.10;;
74867;SDS011;63419;42.262;12.210;2023-03-01T14:46:52;3.75;;;1.00;;
74867;SDS011;63419;42.262;12.210;2023-03-01T14:49:24;4.25;;;1.02;;
74867;SDS011;63419;42.262;12.210;2023-03-01T14:51:58;5.13;;;0.98;;
74867;SDS011;63419;42.262;12.210;2023-03-01T14:54:39;3.25;;;0.50;;
74867;SDS011;63419;42.262;12.210;2023-03-01T14:57:23;3.35;;;0.70;;
74867;SDS011;63419;42.262;12.210;2023-03-01T14:59:53;4.35;;;0.80;;
74867;SDS011;63419;42.262;12.210;2023-03-01T15:02:25;7.97;;;3.40;;
74867;SDS011;63419;42.262;12.210;2023-03-01T15:04:57;4.20;;;1.40;;
74867;SDS011;63419;42.262;12.210;2023-03-01T15:07:30;5.40;;;1.60;;
74867;SDS011;63419;42.262;12.210;2023-03-01T15:10:02;7.40;;;3.35;;
74867;SDS011;63419;42.262;12.210;2023-03-01T15:12:37;5.78;;;2.58;;
74867;SDS011;63419;42.262;12.210;2023-03-01T15:15:20;5.65;;;2.22;;
74867;SDS011;63419;42.262;12.210;2023-03-01T15:18:57;6.18;;;2.50;;
74867;SDS011;63419;42.262;12.210;2023-03-01T15:21:36;4.60;;;1.65;;
74867;SDS011;63419;42.262;12.210;2023-03-01T15:29:28;7.15;;;3.30;;
74867;SDS011;63419;42.262;12.210;2023-03-01T15:32:00;18.17;;;8.90;;
74867;SDS011;63419;42.262;12.210;2023-03-01T15:34:50;6.63;;;3.13;;
74867;SDS011;63419;42.262;12.210;2023-03-01T15:42:59;6.22;;;2.72;;
74867;SDS011;63419;42.262;12.210;2023-03-01T15:45:29;7.10;;;3.10;;
74867;SDS011;63419;42.262;12.210;2023-03-01T15:48:00;5.88;;;2.30;;
74867;SDS011;63419;42.262;12.210;2023-03-01T15:50:41;8.02;;;2.80;;
74867;SDS011;63419;42.262;12.210;2023-03-01T15:53:13;5.47;;;1.80;;
74867;SDS011;63419;42.262;12.210;2023-03-01T15:55:41;7.47;;;2.60;;
74867;SDS011;63419;42.262;12.210;2023-03-01T15:58:12;5.88;;;2.40;;
74867;SDS011;63419;42.262;12.210;2023-03-01T16:00:44;5.63;;;2.60;;
74867;SDS011;63419;42.262;12.210;2023-03-01T16:03:26;6.90;;;2.67;;
74867;SDS011;63419;42.262;12.210;2023-03-01T16:05:53;7.15;;;2.80;;
74867;SDS011;63419;42.262;12.210;2023-03-01T16:08:21;8.30;;;2.88;;
74867;SDS011;63419;42.262;12.210;2023-03-01T16:10:48;5.93;;;2.33;;
74867;SDS011;63419;42.262;12.210;2023-03-01T16:13:17;6.68;;;2.92;;
74867;SDS011;63419;42.262;12.210;2023-03-01T16:15:45;5.13;;;1.70;;
74867;SDS011;63419;42.262;12.210;2023-03-01T16:18:13;6.47;;;2.40;;
74867;SDS011;63419;42.262;12.210;2023-03-01T16:20:40;4.68;;;1.70;;
74867;SDS011;63419;42.262;12.210;2023-03-01T16:23:08;7.57;;;3.10;;
74867;SDS011;63419;42.262;12.210;2023-03-01T16:25:37;12.02;;;6.35;;
74867;SDS011;63419;42.262;12.210;2023-03-01T16:28:05;9.63;;;4.40;;
74867;SDS011;63419;42.262;12.210;2023-03-01T16:30:36;8.30;;;3.95;;
74867;SDS011;63419;42.262;12.210;2023-03-01T16:33:06;8.18;;;4.18;;
74867;SDS011;63419;42.262;12.210;2023-03-01T16:35:54;7.32;;;3.40;;
74867;SDS011;63419;42.262;12.210;2023-03-01T16:38:21;7.65;;;3.58;;
74867;SDS011;63419;42.262;12.210;2023-03-01T16:40:50;7.03;;;2.92;;
74867;SDS011;63419;42.262;12.210;2023-03-01T16:43:18;14.18;;;8.80;;
74867;SDS011;63419;42.262;12.210;2023-03-01T16:48:13;11.40;;;5.35;;
74867;SDS011;63419;42.262;12.210;2023-03-01T16:50:42;11.27;;;7.43;;
74867;SDS011;63419;42.262;12.210;2023-03-01T16:53:10;10.60;;;6.40;;
74867;SDS011;63419;42.262;12.210;2023-03-01T16:55:38;18.08;;;9.38;;
74867;SDS011;63419;42.262;12.210;2023-03-01T16:58:11;7.10;;;3.05;;
74867;SDS011;63419;42.262;12.210;2023-03-01T17:00:38;8.35;;;4.68;;
74867;SDS011;63419;42.262;12.210;2023-03-01T17:03:06;6.90;;;3.38;;
74867;SDS011;63419;42.262;12.210;2023-03-01T17:05:33;8.88;;;4.85;;
74867;SDS011;63419;42.262;12.210;2023-03-01T17:08:00;11.77;;;6.78;;
74867;SDS011;63419;42.262;12.210;2023-03-01T17:10:27;14.02;;;7.47;;
74867;SDS011;63419;42.262;12.210;2023-03-01T17:12:55;9.43;;;5.10;;
74867;SDS011;63419;42.262;12.210;2023-03-01T17:15:22;10.50;;;4.00;;
74867;SDS011;63419;42.262;12.210;2023-03-01T17:17:50;5.53;;;2.47;;
74867;SDS011;63419;42.262;12.210;2023-03-01T17:20:17;7.40;;;2.45;;
74867;SDS011;63419;42.262;12.210;2023-03-01T17:22:45;5.00;;;2.05;;
74867;SDS011;63419;42.262;12.210;2023-03-01T17:25:13;7.38;;;2.15;;
74867;SDS011;63419;42.262;12.210;2023-03-01T17:27:41;6.45;;;2.30;;
74867;SDS011;63419;42.262;12.210;2023-03-01T17:30:09;6.43;;;2.42;;
74867;SDS011;63419;42.262;12.210;2023-03-01T17:32:39;8.23;;;3.05;;